sensor_id;sensor_type;location;lat;lon;timestamp;P1;durP1;ratioP1;P2;durP2;ratioP2
42186;SDS011;27858;51.414;0.018;2024-03-06T00:02:20;7.20;;;5.15;;
42186;SDS011;27858;51.414;0.018;2024-03-06T00:04:47;7.97;;;5.70;;
42186;SDS011;27858;51.414;0.018;2024-03-06T00:07:14;13.10;;;6.85;;
42186;SDS011;27858;51.414;0.018;2024-03-06T00:09:41;7.90;;;5.97;;
42186;SDS011;27858;51.414;0.018;2024-03-06T00:12:09;11.30;;;6.43;;
42186;SDS011;27858;51.414;0.018;2024-03-06T00:14:36;12.73;;;7.18;;
42186;SDS011;27858;51.414;0.018;2024-03-06T00:17:03;12.35;;;6.18;;
42186;SDS011;27858;51.414;0.018;2024-03-06T00:19:34;9.88;;;5.60;;
42186;SDS011;27858;51.414;0.018;2024-03-06T00:22:01;10.23;;;6.25;;
42186;SDS011;27858;51.414;0.018;2024-03-06T00:24:29;8.63;;;5.65;;
42186;SDS011;27858;51.414;0.018;2024-03-06T00:26:55;8.85;;;5.30;;
42186;SDS011;27858;51.414;0.018;2024-03-06T00:29:22;8.63;;;5.70;;
42186;SDS011;27858;51.414;0.018;2024-03-06T00:31:49;10.88;;;6.50;;
42186;SDS011;27858;51.414;0.018;2024-03-06T00:34:16;8.20;;;5.28;;
42186;SDS011;27858;51.414;0.018;2024-03-06T00:36:43;9.80;;;5.43;;
42186;SDS011;27858;51.414;0.018;2024-03-06T00:39:10;8.80;;;5.50;;
42186;SDS011;27858;51.414;0.018;2024-03-06T00:41:40;12.13;;;7.45;;
42186;SDS011;27858;51.414;0.018;2024-03-06T00:44:08;11.98;;;6.47;;
42186;SDS011;27858;51.414;0.018;2024-03-06T00:46:35;9.30;;;6.10;;
42186;SDS011;27858;51.414;0.018;2024-03-06T00:49:02;9.38;;;6.35;;
42186;SDS011;27858;51.414;0.018;2024-03-06T00:51:29;10.43;;;5.80;;
42186;SDS011;27858;51.414;0.018;2024-03-06T00:54:09;11.05;;;6.53;;
42186;SDS011;27858;51.414;0.018;2024-03-06T00:56:37;11.38;;;5.80;;
42186;SDS011;27858;51.414;0.018;2024-03-06T00:59:05;10.35;;;6.57;;
42186;SDS011;27858;51.414;0.018;2024-03-06T01:01:32;13.20;;;7.07;;
42186;SDS011;27858;51.414;0.018;2024-03-06T01:03:59;11.90;;;7.18;;
42186;SDS011;27858;51.414;0.018;2024-03-06T01:06:26;10.68;;;6.63;;
42186;SDS011;27858;51.414;0.018;2024-03-06T01:08:53;14.40;;;7.40;;
42186;SDS011;27858;51.414;0.018;2024-03-06T01:11:20;14.48;;;7.95;;
42186;SDS011;27858;51.414;0.018;2024-03-06T01:13:47;12.05;;;6.95;;
42186;SDS011;27858;51.414;0.018;2024-03-06T01:16:15;14.32;;;9.00;;
42186;SDS011;27858;51.414;0.018;2024-03-06T01:18:42;12.32;;;7.10;;
42186;SDS011;27858;51.414;0.018;2024-03-06T01:21:09;11.75;;;7.40;;
42186;SDS011;27858;51.414;0.018;2024-03-06T01:23:36;9.23;;;6.28;;
42186;SDS011;27858;51.414;0.018;2024-03-06T01:26:03;12.45;;;6.95;;
42186;SDS011;27858;51.414;0.018;2024-03-06T01:28:30;9.85;;;6.88;;
42186;SDS011;27858;51.414;0.018;2024-03-06T01:30:57;11.00;;;6.22;;
42186;SDS011;27858;51.414;0.018;2024-03-06T01:33:25;12.05;;;8.68;;
42186;SDS011;27858;51.414;0.018;2024-03-06T01:35:53;13.02;;;7.13;;
42186;SDS011;27858;51.414;0.018;2024-03-06T01:38:20;9.30;;;6.45;;
42186;SDS011;27858;51.414;0.018;2024-03-06T01:40:46;13.07;;;7.40;;
42186;SDS011;27858;51.414;0.018;2024-03-06T01:43:20;13.23;;;8.57;;
42186;SDS011;27858;51.414;0.018;2024-03-06T01:45:49;10.70;;;6.85;;
42186;SDS011;27858;51.414;0.018;2024-03-06T01:48:17;12.82;;;7.32;;
42186;SDS011;27858;51.414;0.018;2024-03-06T01:50:46;11.30;;;6.93;;
42186;SDS011;27858;51.414;0.018;2024-03-06T01:53:14;13.05;;;6.82;;
42186;SDS011;27858;51.414;0.018;2024-03-06T01:55:43;9.50;;;6.13;;
42186;SDS011;27858;51.414;0.018;2024-03-06T01:58:10;12.35;;;7.53;;
42186;SDS011;27858;51.414;0.018;2024-03-06T02:00:37;11.55;;;6.70;;
42186;SDS011;27858;51.414;0.018;2024-03-06T02:03:04;12.60;;;7.07;;
42186;SDS011;27858;51.414;0.018;2024-03-06T02:05:32;15.80;;;8.02;;
42186;SDS011;27858;51.414;0.018;2024-03-06T02:07:59;12.73;;;7.03;;
42186;SDS011;27858;51.414;0.018;2024-03-06T02:10:26;10.00;;;5.85;;
42186;SDS011;27858;51.414;0.018;2024-03-06T02:12:54;12.88;;;7.40;;
42186;SDS011;27858;51.414;0.018;2024-03-06T02:15:21;13.10;;;8.32;;
42186;SDS011;27858;51.414;0.018;2024-03-06T02:17:48;14.45;;;8.32;;
42186;SDS011;27858;51.414;0.018;2024-03-06T02:20:15;12.25;;;8.05;;
42186;SDS011;27858;51.414;0.018;2024-03-06T02:22:42;11.98;;;6.72;;
42186;SDS011;27858;51.414;0.018;2024-03-06T02:25:09;14.50;;;8.35;;
42186;SDS011;27858;51.414;0.018;2024-03-06T02:27:37;13.63;;;8.73;;
42186;SDS011;27858;51.414;0.018;2024-03-06T02:30:07;14.40;;;8.02;;
42186;SDS011;27858;51.414;0.018;2024-03-06T02:32:34;14.55;;;7.90;;
42186;SDS011;27858;51.414;0.018;2024-03-06T02:35:01;14.90;;;8.23;;
42186;SDS011;27858;51.414;0.018;2024-03-06T02:37:29;14.55;;;9.18;;
42186;SDS011;27858;51.414;0.018;2024-03-06T02:39:56;13.05;;;8.43;;
42186;SDS011;27858;51.414;0.018;2024-03-06T02:42:23;15.10;;;8.48;;
42186;SDS011;27858;51.414;0.018;2024-03-06T02:44:49;14.63;;;8.68;;
42186;SDS011;27858;51.414;0.018;2024-03-06T02:47:16;17.42;;;8.00;;
42186;SDS011;27858;51.414;0.018;2024-03-06T02:49:43;15.23;;;9.27;;
42186;SDS011;27858;51.414;0.018;2024-03-06T02:52:10;13.05;;;7.90;;
42186;SDS011;27858;51.414;0.018;2024-03-06T02:54:37;12.50;;;7.35;;
42186;SDS011;27858;51.414;0.018;2024-03-06T02:57:03;13.13;;;7.88;;
42186;SDS011;27858;51.414;0.018;2024-03-06T02:59:30;10.27;;;6.15;;
42186;SDS011;27858;51.414;0.018;2024-03-06T03:01:57;20.02;;;9.85;;
42186;SDS011;27858;51.414;0.018;2024-03-06T03:04:24;13.57;;;8.98;;
42186;SDS011;27858;51.414;0.018;2024-03-06T03:06:52;14.23;;;7.63;;
42186;SDS011;27858;51.414;0.018;2024-03-06T03:09:19;14.38;;;7.65;;
42186;SDS011;27858;51.414;0.018;2024-03-06T03:11:47;15.15;;;7.68;;
42186;SDS011;27858;51.414;0.018;2024-03-06T03:14:14;11.07;;;6.85;;
42186;SDS011;27858;51.414;0.018;2024-03-06T03:16:43;16.08;;;8.60;;
42186;SDS011;27858;51.414;0.018;2024-03-06T03:19:11;13.20;;;7.18;;
42186;SDS011;27858;51.414;0.018;2024-03-06T03:21:37;15.75;;;7.63;;
42186;SDS011;27858;51.414;0.018;2024-03-06T03:24:05;11.90;;;8.02;;
42186;SDS011;27858;51.414;0.018;2024-03-06T03:26:32;15.20;;;8.20;;
42186;SDS011;27858;51.414;0.018;2024-03-06T03:28:59;17.00;;;9.63;;
42186;SDS011;27858;51.414;0.018;2024-03-06T03:31:26;16.15;;;9.20;;
42186;SDS011;27858;51.414;0.018;2024-03-06T03:33:52;16.05;;;9.45;;
42186;SDS011;27858;51.414;0.018;2024-03-06T03:36:19;13.50;;;7.53;;
42186;SDS011;27858;51.414;0.018;2024-03-06T03:38:46;16.23;;;9.35;;
42186;SDS011;27858;51.414;0.018;2024-03-06T03:41:13;16.10;;;8.38;;
42186;SDS011;27858;51.414;0.018;2024-03-06T03:43:40;13.25;;;7.88;;
42186;SDS011;27858;51.414;0.018;2024-03-06T03:46:07;14.85;;;9.02;;
42186;SDS011;27858;51.414;0.018;2024-03-06T03:48:35;14.50;;;8.27;;
42186;SDS011;27858;51.414;0.018;2024-03-06T03:51:03;20.95;;;10.73;;
42186;SDS011;27858;51.414;0.018;2024-03-06T03:53:31;16.25;;;9.27;;
42186;SDS011;27858;51.414;0.018;2024-03-06T03:55:59;17.27;;;7.95;;
42186;SDS011;27858;51.414;0.018;2024-03-06T03:58:26;13.60;;;8.38;;
42186;SDS011;27858;51.414;0.018;2024-03-06T04:00:52;18.00;;;10.20;;
42186;SDS011;27858;51.414;0.018;2024-03-06T04:03:21;15.73;;;8.82;;
42186;SDS011;27858;51.414;0.018;2024-03-06T04:05:49;16.80;;;8.52;;
42186;SDS011;27858;51.414;0.018;2024-03-06T04:08:16;17.73;;;8.50;;
42186;SDS011;27858;51.414;0.018;2024-03-06T04:10:43;17.90;;;9.30;;
42186;SDS011;27858;51.414;0.018;2024-03-06T04:13:14;23.48;;;10.23;;
42186;SDS011;27858;51.414;0.018;2024-03-06T04:15:43;15.52;;;9.02;;
42186;SDS011;27858;51.414;0.018;2024-03-06T04:18:13;17.52;;;10.30;;
42186;SDS011;27858;51.414;0.018;2024-03-06T04:20:40;15.02;;;8.77;;
42186;SDS011;27858;51.414;0.018;2024-03-06T04:23:07;16.08;;;9.75;;
42186;SDS011;27858;51.414;0.018;2024-03-06T04:25:34;15.20;;;9.35;;
42186;SDS011;27858;51.414;0.018;2024-03-06T04:28:01;15.35;;;8.48;;
42186;SDS011;27858;51.414;0.018;2024-03-06T04:30:28;13.13;;;8.35;;
42186;SDS011;27858;51.414;0.018;2024-03-06T04:32:55;17.55;;;9.25;;
42186;SDS011;27858;51.414;0.018;2024-03-06T04:35:22;19.30;;;8.70;;
42186;SDS011;27858;51.414;0.018;2024-03-06T04:37:49;13.95;;;9.27;;
42186;SDS011;27858;51.414;0.018;2024-03-06T04:40:16;19.42;;;10.77;;
42186;SDS011;27858;51.414;0.018;2024-03-06T04:42:47;16.05;;;9.52;;
42186;SDS011;27858;51.414;0.018;2024-03-06T04:45:15;15.98;;;8.93;;
42186;SDS011;27858;51.414;0.018;2024-03-06T04:47:42;17.63;;;10.20;;
42186;SDS011;27858;51.414;0.018;2024-03-06T04:50:10;17.13;;;8.38;;
42186;SDS011;27858;51.414;0.018;2024-03-06T04:52:38;17.58;;;9.43;;
42186;SDS011;27858;51.414;0.018;2024-03-06T04:55:05;15.68;;;9.43;;
42186;SDS011;27858;51.414;0.018;2024-03-06T04:57:34;14.95;;;8.63;;
42186;SDS011;27858;51.414;0.018;2024-03-06T05:00:01;14.57;;;9.48;;
42186;SDS011;27858;51.414;0.018;2024-03-06T05:02:32;17.88;;;10.18;;
42186;SDS011;27858;51.414;0.018;2024-03-06T05:05:21;16.42;;;10.48;;
42186;SDS011;27858;51.414;0.018;2024-03-06T05:08:06;20.58;;;10.70;;
42186;SDS011;27858;51.414;0.018;2024-03-06T05:10:50;14.70;;;8.02;;
42186;SDS011;27858;51.414;0.018;2024-03-06T05:13:35;17.05;;;10.07;;
42186;SDS011;27858;51.414;0.018;2024-03-06T05:16:19;14.40;;;8.77;;
42186;SDS011;27858;51.414;0.018;2024-03-06T05:19:03;21.95;;;10.65;;
42186;SDS011;27858;51.414;0.018;2024-03-06T05:21:48;20.45;;;10.13;;
42186;SDS011;27858;51.414;0.018;2024-03-06T05:24:32;21.77;;;11.55;;
42186;SDS011;27858;51.414;0.018;2024-03-06T05:27:16;16.40;;;9.25;;
42186;SDS011;27858;51.414;0.018;2024-03-06T05:30:01;16.52;;;10.35;;
42186;SDS011;27858;51.414;0.018;2024-03-06T05:32:49;21.20;;;10.40;;
42186;SDS011;27858;51.414;0.018;2024-03-06T05:35:33;20.65;;;10.88;;
42186;SDS011;27858;51.414;0.018;2024-03-06T05:38:17;18.60;;;9.00;;
42186;SDS011;27858;51.414;0.018;2024-03-06T05:41:02;15.07;;;8.48;;
42186;SDS011;27858;51.414;0.018;2024-03-06T05:43:46;23.40;;;10.40;;
42186;SDS011;27858;51.414;0.018;2024-03-06T05:46:31;19.33;;;10.18;;
42186;SDS011;27858;51.414;0.018;2024-03-06T05:49:16;19.80;;;10.25;;
42186;SDS011;27858;51.414;0.018;2024-03-06T05:52:00;22.02;;;11.20;;
42186;SDS011;27858;51.414;0.018;2024-03-06T05:54:44;21.60;;;11.80;;
42186;SDS011;27858;51.414;0.018;2024-03-06T05:57:28;13.30;;;8.18;;
42186;SDS011;27858;51.414;0.018;2024-03-06T06:00:12;21.33;;;11.00;;
42186;SDS011;27858;51.414;0.018;2024-03-06T06:02:39;18.42;;;10.15;;
42186;SDS011;27858;51.414;0.018;2024-03-06T06:05:06;21.85;;;10.77;;
42186;SDS011;27858;51.414;0.018;2024-03-06T06:07:49;19.73;;;9.88;;
42186;SDS011;27858;51.414;0.018;2024-03-06T06:10:16;17.73;;;9.60;;
42186;SDS011;27858;51.414;0.018;2024-03-06T06:12:47;18.38;;;10.43;;
42186;SDS011;27858;51.414;0.018;2024-03-06T06:15:14;20.13;;;11.25;;
42186;SDS011;27858;51.414;0.018;2024-03-06T06:17:45;16.85;;;10.18;;
42186;SDS011;27858;51.414;0.018;2024-03-06T06:20:12;21.85;;;11.63;;
42186;SDS011;27858;51.414;0.018;2024-03-06T06:22:44;23.00;;;11.57;;
42186;SDS011;27858;51.414;0.018;2024-03-06T06:25:12;21.08;;;11.30;;
42186;SDS011;27858;51.414;0.018;2024-03-06T06:27:41;25.25;;;13.25;;
42186;SDS011;27858;51.414;0.018;2024-03-06T06:30:08;19.52;;;10.52;;
42186;SDS011;27858;51.414;0.018;2024-03-06T06:32:38;19.63;;;10.90;;
42186;SDS011;27858;51.414;0.018;2024-03-06T06:35:07;20.73;;;11.75;;
42186;SDS011;27858;51.414;0.018;2024-03-06T06:37:35;28.00;;;13.68;;
42186;SDS011;27858;51.414;0.018;2024-03-06T06:40:02;22.70;;;12.65;;
42186;SDS011;27858;51.414;0.018;2024-03-06T06:42:33;29.20;;;15.10;;
42186;SDS011;27858;51.414;0.018;2024-03-06T06:45:02;27.42;;;15.65;;
42186;SDS011;27858;51.414;0.018;2024-03-06T06:47:29;26.70;;;15.00;;
42186;SDS011;27858;51.414;0.018;2024-03-06T06:49:56;24.73;;;12.55;;
42186;SDS011;27858;51.414;0.018;2024-03-06T06:52:23;24.45;;;12.70;;
42186;SDS011;27858;51.414;0.018;2024-03-06T06:54:54;26.35;;;14.25;;
42186;SDS011;27858;51.414;0.018;2024-03-06T06:57:22;32.15;;;16.23;;
42186;SDS011;27858;51.414;0.018;2024-03-06T06:59:49;32.08;;;15.93;;
42186;SDS011;27858;51.414;0.018;2024-03-06T07:02:16;29.05;;;15.65;;
42186;SDS011;27858;51.414;0.018;2024-03-06T07:04:43;34.92;;;16.45;;
42186;SDS011;27858;51.414;0.018;2024-03-06T07:07:10;29.80;;;15.80;;
42186;SDS011;27858;51.414;0.018;2024-03-06T07:09:37;31.45;;;16.38;;
42186;SDS011;27858;51.414;0.018;2024-03-06T07:12:04;24.95;;;14.32;;
42186;SDS011;27858;51.414;0.018;2024-03-06T07:14:31;29.25;;;16.35;;
42186;SDS011;27858;51.414;0.018;2024-03-06T07:16:58;31.10;;;16.30;;
42186;SDS011;27858;51.414;0.018;2024-03-06T07:19:25;29.95;;;17.98;;
42186;SDS011;27858;51.414;0.018;2024-03-06T07:21:52;32.15;;;16.63;;
42186;SDS011;27858;51.414;0.018;2024-03-06T07:24:19;25.92;;;14.25;;
42186;SDS011;27858;51.414;0.018;2024-03-06T07:26:46;27.75;;;15.45;;
42186;SDS011;27858;51.414;0.018;2024-03-06T07:29:14;24.33;;;13.90;;
42186;SDS011;27858;51.414;0.018;2024-03-06T07:31:41;24.73;;;14.77;;
42186;SDS011;27858;51.414;0.018;2024-03-06T07:34:09;27.17;;;13.38;;
42186;SDS011;27858;51.414;0.018;2024-03-06T07:36:36;31.35;;;15.52;;
42186;SDS011;27858;51.414;0.018;2024-03-06T07:39:03;40.83;;;15.57;;
42186;SDS011;27858;51.414;0.018;2024-03-06T07:41:31;25.00;;;15.02;;
42186;SDS011;27858;51.414;0.018;2024-03-06T07:44:02;35.80;;;19.67;;
42186;SDS011;27858;51.414;0.018;2024-03-06T07:46:29;31.00;;;16.58;;
42186;SDS011;27858;51.414;0.018;2024-03-06T07:48:56;27.55;;;14.05;;
42186;SDS011;27858;51.414;0.018;2024-03-06T07:51:23;28.70;;;16.52;;
42186;SDS011;27858;51.414;0.018;2024-03-06T07:53:50;27.92;;;14.63;;
42186;SDS011;27858;51.414;0.018;2024-03-06T07:56:17;31.65;;;16.33;;
42186;SDS011;27858;51.414;0.018;2024-03-06T07:58:44;31.55;;;16.33;;
42186;SDS011;27858;51.414;0.018;2024-03-06T08:01:11;31.60;;;16.30;;
42186;SDS011;27858;51.414;0.018;2024-03-06T08:03:39;29.02;;;16.65;;
42186;SDS011;27858;51.414;0.018;2024-03-06T08:06:07;34.30;;;18.80;;
42186;SDS011;27858;51.414;0.018;2024-03-06T08:08:35;34.70;;;18.13;;
42186;SDS011;27858;51.414;0.018;2024-03-06T08:11:02;26.63;;;15.73;;
42186;SDS011;27858;51.414;0.018;2024-03-06T08:13:30;32.33;;;17.05;;
42186;SDS011;27858;51.414;0.018;2024-03-06T08:15:57;38.50;;;19.42;;
42186;SDS011;27858;51.414;0.018;2024-03-06T08:18:24;38.03;;;18.13;;
42186;SDS011;27858;51.414;0.018;2024-03-06T08:20:51;35.60;;;18.60;;
42186;SDS011;27858;51.414;0.018;2024-03-06T08:23:19;31.02;;;16.63;;
42186;SDS011;27858;51.414;0.018;2024-03-06T08:25:46;34.40;;;17.25;;
42186;SDS011;27858;51.414;0.018;2024-03-06T08:28:13;44.88;;;20.45;;
42186;SDS011;27858;51.414;0.018;2024-03-06T08:30:39;44.38;;;22.75;;
42186;SDS011;27858;51.414;0.018;2024-03-06T08:33:06;34.80;;;18.67;;
42186;SDS011;27858;51.414;0.018;2024-03-06T08:35:33;53.53;;;21.15;;
42186;SDS011;27858;51.414;0.018;2024-03-06T08:38:01;33.38;;;16.73;;
42186;SDS011;27858;51.414;0.018;2024-03-06T08:40:28;40.80;;;17.58;;
42186;SDS011;27858;51.414;0.018;2024-03-06T08:42:55;34.38;;;18.65;;
42186;SDS011;27858;51.414;0.018;2024-03-06T08:45:22;31.35;;;16.50;;
42186;SDS011;27858;51.414;0.018;2024-03-06T08:47:52;27.70;;;15.80;;
42186;SDS011;27858;51.414;0.018;2024-03-06T08:50:22;30.63;;;16.05;;
42186;SDS011;27858;51.414;0.018;2024-03-06T08:52:50;30.88;;;17.80;;
42186;SDS011;27858;51.414;0.018;2024-03-06T08:55:18;39.05;;;19.38;;
42186;SDS011;27858;51.414;0.018;2024-03-06T08:57:45;34.72;;;18.45;;
42186;SDS011;27858;51.414;0.018;2024-03-06T09:00:12;42.15;;;19.95;;
42186;SDS011;27858;51.414;0.018;2024-03-06T09:02:41;46.03;;;20.45;;
42186;SDS011;27858;51.414;0.018;2024-03-06T09:05:09;31.25;;;17.50;;
42186;SDS011;27858;51.414;0.018;2024-03-06T09:07:39;48.10;;;22.10;;
42186;SDS011;27858;51.414;0.018;2024-03-06T09:10:12;42.55;;;20.38;;
42186;SDS011;27858;51.414;0.018;2024-03-06T09:12:40;43.95;;;24.05;;
42186;SDS011;27858;51.414;0.018;2024-03-06T09:15:10;36.72;;;18.83;;
42186;SDS011;27858;51.414;0.018;2024-03-06T09:17:38;42.42;;;20.50;;
42186;SDS011;27858;51.414;0.018;2024-03-06T09:20:05;35.03;;;17.35;;
42186;SDS011;27858;51.414;0.018;2024-03-06T09:22:40;37.38;;;18.33;;
42186;SDS011;27858;51.414;0.018;2024-03-06T09:25:07;40.28;;;18.90;;
42186;SDS011;27858;51.414;0.018;2024-03-06T09:27:35;33.40;;;17.52;;
42186;SDS011;27858;51.414;0.018;2024-03-06T09:30:01;31.65;;;19.00;;
42186;SDS011;27858;51.414;0.018;2024-03-06T09:32:32;41.70;;;20.88;;
42186;SDS011;27858;51.414;0.018;2024-03-06T09:34:59;28.35;;;15.10;;
42186;SDS011;27858;51.414;0.018;2024-03-06T09:37:26;34.40;;;18.65;;
42186;SDS011;27858;51.414;0.018;2024-03-06T09:39:54;37.55;;;20.63;;
42186;SDS011;27858;51.414;0.018;2024-03-06T09:42:23;32.55;;;17.52;;
42186;SDS011;27858;51.414;0.018;2024-03-06T09:44:50;38.38;;;18.40;;
42186;SDS011;27858;51.414;0.018;2024-03-06T09:47:18;29.77;;;14.45;;
42186;SDS011;27858;51.414;0.018;2024-03-06T09:49:52;24.48;;;14.15;;
42186;SDS011;27858;51.414;0.018;2024-03-06T09:52:23;30.33;;;14.20;;
42186;SDS011;27858;51.414;0.018;2024-03-06T09:54:52;29.13;;;16.00;;
42186;SDS011;27858;51.414;0.018;2024-03-06T09:57:23;26.67;;;15.55;;
42186;SDS011;27858;51.414;0.018;2024-03-06T09:59:50;31.40;;;16.60;;
42186;SDS011;27858;51.414;0.018;2024-03-06T10:02:24;33.13;;;16.45;;
42186;SDS011;27858;51.414;0.018;2024-03-06T10:04:59;25.35;;;14.32;;
42186;SDS011;27858;51.414;0.018;2024-03-06T10:07:26;41.92;;;15.00;;
42186;SDS011;27858;51.414;0.018;2024-03-06T10:09:53;22.15;;;11.55;;
42186;SDS011;27858;51.414;0.018;2024-03-06T10:12:21;26.10;;;13.55;;
42186;SDS011;27858;51.414;0.018;2024-03-06T10:14:51;20.25;;;12.60;;
42186;SDS011;27858;51.414;0.018;2024-03-06T10:17:19;20.55;;;10.27;;
42186;SDS011;27858;51.414;0.018;2024-03-06T10:19:50;26.27;;;13.27;;
42186;SDS011;27858;51.414;0.018;2024-03-06T10:22:19;25.35;;;13.32;;
42186;SDS011;27858;51.414;0.018;2024-03-06T10:24:47;22.67;;;12.52;;
42186;SDS011;27858;51.414;0.018;2024-03-06T10:27:15;25.98;;;14.40;;
42186;SDS011;27858;51.414;0.018;2024-03-06T10:29:43;31.15;;;13.38;;
42186;SDS011;27858;51.414;0.018;2024-03-06T10:32:16;16.50;;;10.63;;
42186;SDS011;27858;51.414;0.018;2024-03-06T10:34:46;26.20;;;14.23;;
42186;SDS011;27858;51.414;0.018;2024-03-06T10:37:13;31.02;;;16.17;;
42186;SDS011;27858;51.414;0.018;2024-03-06T10:39:42;26.42;;;14.15;;
42186;SDS011;27858;51.414;0.018;2024-03-06T10:42:12;24.08;;;14.65;;
42186;SDS011;27858;51.414;0.018;2024-03-06T10:44:42;18.50;;;11.55;;
42186;SDS011;27858;51.414;0.018;2024-03-06T10:47:19;17.73;;;10.75;;
42186;SDS011;27858;51.414;0.018;2024-03-06T10:49:47;18.90;;;10.23;;
42186;SDS011;27858;51.414;0.018;2024-03-06T10:52:16;17.27;;;10.27;;
42186;SDS011;27858;51.414;0.018;2024-03-06T10:54:44;18.33;;;10.77;;
42186;SDS011;27858;51.414;0.018;2024-03-06T10:57:14;21.92;;;10.30;;
42186;SDS011;27858;51.414;0.018;2024-03-06T10:59:41;20.00;;;10.60;;
42186;SDS011;27858;51.414;0.018;2024-03-06T11:02:10;20.40;;;10.10;;
42186;SDS011;27858;51.414;0.018;2024-03-06T11:04:39;20.02;;;10.20;;
42186;SDS011;27858;51.414;0.018;2024-03-06T11:07:07;16.38;;;9.30;;
42186;SDS011;27858;51.414;0.018;2024-03-06T11:09:40;13.65;;;8.98;;
42186;SDS011;27858;51.414;0.018;2024-03-06T11:12:07;17.08;;;8.90;;
42186;SDS011;27858;51.414;0.018;2024-03-06T11:14:38;16.13;;;9.00;;
42186;SDS011;27858;51.414;0.018;2024-03-06T11:17:08;19.08;;;9.95;;
42186;SDS011;27858;51.414;0.018;2024-03-06T11:28:21;15.38;;;8.95;;
42186;SDS011;27858;51.414;0.018;2024-03-06T11:30:59;15.50;;;9.23;;
42186;SDS011;27858;51.414;0.018;2024-03-06T11:33:34;14.88;;;8.15;;
42186;SDS011;27858;51.414;0.018;2024-03-06T11:36:24;17.38;;;11.18;;
42186;SDS011;27858;51.414;0.018;2024-03-06T11:41:24;14.23;;;8.48;;
42186;SDS011;27858;51.414;0.018;2024-03-06T11:43:54;22.52;;;10.02;;
42186;SDS011;27858;51.414;0.018;2024-03-06T11:46:23;14.80;;;9.40;;
42186;SDS011;27858;51.414;0.018;2024-03-06T11:49:20;14.30;;;7.95;;
42186;SDS011;27858;51.414;0.018;2024-03-06T11:51:50;11.68;;;8.00;;
42186;SDS011;27858;51.414;0.018;2024-03-06T11:54:22;16.60;;;9.57;;
42186;SDS011;27858;51.414;0.018;2024-03-06T11:56:51;14.93;;;8.63;;
42186;SDS011;27858;51.414;0.018;2024-03-06T11:59:26;14.63;;;7.78;;
42186;SDS011;27858;51.414;0.018;2024-03-06T12:01:57;13.27;;;7.97;;
42186;SDS011;27858;51.414;0.018;2024-03-06T12:04:29;13.10;;;8.32;;
42186;SDS011;27858;51.414;0.018;2024-03-06T12:06:57;11.88;;;7.45;;
42186;SDS011;27858;51.414;0.018;2024-03-06T12:09:35;11.15;;;7.05;;
42186;SDS011;27858;51.414;0.018;2024-03-06T12:12:07;12.60;;;6.30;;
42186;SDS011;27858;51.414;0.018;2024-03-06T12:14:36;10.48;;;6.47;;
42186;SDS011;27858;51.414;0.018;2024-03-06T12:17:06;8.23;;;5.60;;
42186;SDS011;27858;51.414;0.018;2024-03-06T12:19:41;7.20;;;5.10;;
42186;SDS011;27858;51.414;0.018;2024-03-06T12:22:10;10.65;;;5.53;;
42186;SDS011;27858;51.414;0.018;2024-03-06T12:24:40;15.77;;;7.65;;
42186;SDS011;27858;51.414;0.018;2024-03-06T12:27:07;12.00;;;6.45;;
42186;SDS011;27858;51.414;0.018;2024-03-06T12:29:35;11.43;;;6.38;;
42186;SDS011;27858;51.414;0.018;2024-03-06T12:32:02;9.65;;;5.53;;
42186;SDS011;27858;51.414;0.018;2024-03-06T12:34:30;10.45;;;5.60;;
42186;SDS011;27858;51.414;0.018;2024-03-06T12:37:10;14.48;;;7.25;;
42186;SDS011;27858;51.414;0.018;2024-03-06T12:39:38;12.98;;;6.45;;
42186;SDS011;27858;51.414;0.018;2024-03-06T12:42:09;12.38;;;6.85;;
42186;SDS011;27858;51.414;0.018;2024-03-06T12:44:38;14.73;;;6.68;;
42186;SDS011;27858;51.414;0.018;2024-03-06T12:47:08;13.57;;;6.70;;
42186;SDS011;27858;51.414;0.018;2024-03-06T12:49:35;13.57;;;6.90;;
42186;SDS011;27858;51.414;0.018;2024-03-06T12:52:02;8.55;;;5.03;;
42186;SDS011;27858;51.414;0.018;2024-03-06T12:54:31;10.15;;;5.70;;
42186;SDS011;27858;51.414;0.018;2024-03-06T12:56:58;17.13;;;8.00;;
42186;SDS011;27858;51.414;0.018;2024-03-06T12:59:26;9.32;;;5.85;;
42186;SDS011;27858;51.414;0.018;2024-03-06T13:01:52;7.93;;;4.93;;
42186;SDS011;27858;51.414;0.018;2024-03-06T13:04:20;10.95;;;6.22;;
42186;SDS011;27858;51.414;0.018;2024-03-06T13:06:47;10.30;;;5.68;;
42186;SDS011;27858;51.414;0.018;2024-03-06T13:09:14;11.25;;;5.75;;
42186;SDS011;27858;51.414;0.018;2024-03-06T13:11:41;9.38;;;6.55;;
42186;SDS011;27858;51.414;0.018;2024-03-06T13:14:11;7.70;;;4.95;;
42186;SDS011;27858;51.414;0.018;2024-03-06T13:16:39;9.23;;;6.63;;
42186;SDS011;27858;51.414;0.018;2024-03-06T13:19:06;6.63;;;4.00;;
42186;SDS011;27858;51.414;0.018;2024-03-06T13:21:36;9.50;;;4.93;;
42186;SDS011;27858;51.414;0.018;2024-03-06T13:24:03;12.40;;;5.68;;
42186;SDS011;27858;51.414;0.018;2024-03-06T13:26:30;7.72;;;4.50;;
42186;SDS011;27858;51.414;0.018;2024-03-06T13:28:58;7.88;;;4.53;;
42186;SDS011;27858;51.414;0.018;2024-03-06T13:31:26;13.00;;;5.63;;
42186;SDS011;27858;51.414;0.018;2024-03-06T13:33:53;8.52;;;4.18;;
42186;SDS011;27858;51.414;0.018;2024-03-06T13:36:20;5.68;;;4.50;;
42186;SDS011;27858;51.414;0.018;2024-03-06T13:38:48;7.22;;;4.70;;
42186;SDS011;27858;51.414;0.018;2024-03-06T13:41:15;7.07;;;4.10;;
42186;SDS011;27858;51.414;0.018;2024-03-06T13:43:42;5.30;;;4.13;;
42186;SDS011;27858;51.414;0.018;2024-03-06T13:46:09;6.75;;;4.63;;
42186;SDS011;27858;51.414;0.018;2024-03-06T13:48:37;6.45;;;4.38;;
42186;SDS011;27858;51.414;0.018;2024-03-06T13:51:04;8.45;;;5.30;;
42186;SDS011;27858;51.414;0.018;2024-03-06T13:53:31;10.30;;;5.40;;
42186;SDS011;27858;51.414;0.018;2024-03-06T13:55:58;10.05;;;5.95;;
42186;SDS011;27858;51.414;0.018;2024-03-06T13:58:25;12.95;;;6.90;;
42186;SDS011;27858;51.414;0.018;2024-03-06T14:00:52;11.32;;;5.95;;
42186;SDS011;27858;51.414;0.018;2024-03-06T14:03:19;12.32;;;8.02;;
42186;SDS011;27858;51.414;0.018;2024-03-06T14:05:48;11.55;;;6.90;;
42186;SDS011;27858;51.414;0.018;2024-03-06T14:08:15;11.73;;;7.50;;
42186;SDS011;27858;51.414;0.018;2024-03-06T14:10:43;8.90;;;6.07;;
42186;SDS011;27858;51.414;0.018;2024-03-06T14:13:12;10.80;;;5.55;;
42186;SDS011;27858;51.414;0.018;2024-03-06T14:15:39;10.50;;;5.53;;
42186;SDS011;27858;51.414;0.018;2024-03-06T14:18:06;14.18;;;6.80;;
42186;SDS011;27858;51.414;0.018;2024-03-06T14:20:34;11.98;;;6.70;;
42186;SDS011;27858;51.414;0.018;2024-03-06T14:23:01;9.55;;;5.95;;
42186;SDS011;27858;51.414;0.018;2024-03-06T14:25:28;14.27;;;7.68;;
42186;SDS011;27858;51.414;0.018;2024-03-06T14:27:56;11.48;;;7.20;;
42186;SDS011;27858;51.414;0.018;2024-03-06T14:30:24;14.52;;;6.82;;
42186;SDS011;27858;51.414;0.018;2024-03-06T14:32:51;14.15;;;6.88;;
42186;SDS011;27858;51.414;0.018;2024-03-06T14:35:18;10.25;;;6.57;;
42186;SDS011;27858;51.414;0.018;2024-03-06T14:37:48;7.63;;;5.43;;
42186;SDS011;27858;51.414;0.018;2024-03-06T14:40:15;12.02;;;7.10;;
42186;SDS011;27858;51.414;0.018;2024-03-06T14:42:42;8.00;;;5.18;;
42186;SDS011;27858;51.414;0.018;2024-03-06T14:45:10;9.00;;;4.70;;
42186;SDS011;27858;51.414;0.018;2024-03-06T14:47:38;7.85;;;5.43;;
42186;SDS011;27858;51.414;0.018;2024-03-06T14:50:05;10.25;;;4.78;;
42186;SDS011;27858;51.414;0.018;2024-03-06T14:52:33;11.05;;;5.75;;
42186;SDS011;27858;51.414;0.018;2024-03-06T14:55:01;10.07;;;6.03;;